createdAt,value
2024-02-21T00:00:51.857Z,604.00
2024-02-21T00:01:51.936Z,605.00
2024-02-21T00:02:51.844Z,601.00
2024-02-21T00:03:51.947Z,603.00
2024-02-21T00:04:51.973Z,604.00
2024-02-21T00:05:51.853Z,603.00
2024-02-21T00:06:51.837Z,605.00
2024-02-21T00:07:51.951Z,601.00
2024-02-21T00:08:52.142Z,607.00
2024-02-21T00:09:51.903Z,603.00
2024-02-21T00:10:52.066Z,606.00
2024-02-21T00:11:51.973Z,602.00
2024-02-21T00:12:51.872Z,602.00
2024-02-21T00:13:51.988Z,603.00
2024-02-21T00:14:51.899Z,604.00
2024-02-21T00:15:51.877Z,606.00
2024-02-21T00:16:51.926Z,604.00
2024-02-21T00:17:51.885Z,603.00
2024-02-21T00:18:51.921Z,603.00
2024-02-21T00:19:51.993Z,604.00
2024-02-21T00:20:51.902Z,606.00
2024-02-21T00:21:51.881Z,601.00
2024-02-21T00:22:51.933Z,605.00
2024-02-21T00:23:52.109Z,605.00
2024-02-21T00:24:51.889Z,602.00
2024-02-21T00:25:52.022Z,601.00
2024-02-21T00:26:51.905Z,601.00
2024-02-21T00:27:51.906Z,608.00
2024-02-21T00:28:52.114Z,602.00
2024-02-21T00:29:51.879Z,605.00
2024-02-21T00:30:51.910Z,604.00
2024-02-21T00:31:52.007Z,602.00
2024-02-21T00:32:51.942Z,607.00
2024-02-21T00:33:51.987Z,605.00
2024-02-21T00:34:51.958Z,604.00
2024-02-21T00:35:51.897Z,604.00
2024-02-21T00:36:51.941Z,607.00
2024-02-21T00:37:52.004Z,606.00
2024-02-21T00:38:51.921Z,603.00
2024-02-21T00:39:51.933Z,600.00
2024-02-21T00:40:51.941Z,602.00
2024-02-21T00:41:51.906Z,604.00
2024-02-21T00:42:51.970Z,604.00
2024-02-21T00:43:52.046Z,604.00
2024-02-21T00:44:51.961Z,604.00
2024-02-21T00:45:51.999Z,604.00
2024-02-21T00:46:52.029Z,606.00
2024-02-21T00:47:52.158Z,604.00
2024-02-21T00:48:52.091Z,606.00
2024-02-21T00:49:52.242Z,606.00
2024-02-21T00:50:52.073Z,606.00
2024-02-21T00:51:52.095Z,605.00
2024-02-21T00:52:52.209Z,603.00
2024-02-21T00:53:52.109Z,609.00
2024-02-21T00:54:54.661Z,603.00
2024-02-21T00:55:52.237Z,605.00
2024-02-21T00:56:52.105Z,602.00
2024-02-21T00:57:52.123Z,604.00
2024-02-21T00:58:52.233Z,606.00
2024-02-21T00:59:52.150Z,602.00
2024-02-21T01:00:52.182Z,604.00
2024-02-21T01:01:52.221Z,605.00
2024-02-21T01:02:54.035Z,602.00
2024-02-21T01:03:52.186Z,602.00
2024-02-21T01:04:52.180Z,602.00
2024-02-21T01:05:52.208Z,604.00
2024-02-21T01:06:52.150Z,604.00
2024-02-21T01:07:52.208Z,600.00
2024-02-21T01:08:52.196Z,602.00
2024-02-21T01:09:52.183Z,606.00
2024-02-21T01:10:52.232Z,604.00
2024-02-21T01:11:52.205Z,601.00
2024-02-21T01:12:52.237Z,607.00
2024-02-21T01:13:52.247Z,606.00
2024-02-21T01:14:52.190Z,600.00
2024-02-21T01:15:52.196Z,603.00
2024-02-21T01:16:52.304Z,601.00
2024-02-21T01:17:52.310Z,608.00
2024-02-21T01:18:52.297Z,604.00
2024-02-21T01:19:52.275Z,604.00
2024-02-21T01:20:52.193Z,603.00
2024-02-21T01:21:52.221Z,606.00
2024-02-21T01:22:52.285Z,607.00
2024-02-21T01:23:52.202Z,608.00
2024-02-21T01:24:52.191Z,605.00
2024-02-21T01:25:52.269Z,603.00
2024-02-21T01:26:52.197Z,607.00
2024-02-21T01:27:52.223Z,608.00
2024-02-21T01:28:52.697Z,608.00
2024-02-21T01:29:52.213Z,600.00
2024-02-21T01:30:52.225Z,606.00
2024-02-21T01:31:52.302Z,609.00
2024-02-21T01:32:52.246Z,607.00
2024-02-21T01:33:52.248Z,608.00
2024-02-21T01:34:52.389Z,608.00
2024-02-21T01:35:52.400Z,606.00
2024-02-21T01:36:52.241Z,605.00
2024-02-21T01:37:52.264Z,603.00
2024-02-21T01:38:52.218Z,604.00
2024-02-21T01:39:52.267Z,603.00
2024-02-21T01:40:52.331Z,605.00
2024-02-21T01:41:52.227Z,603.00
2024-02-21T01:42:52.240Z,604.00
2024-02-21T01:43:52.354Z,603.00
2024-02-21T01:44:52.257Z,607.00
2024-02-21T01:45:52.271Z,604.00
2024-02-21T01:46:52.327Z,604.00
2024-02-21T01:47:52.397Z,603.00
2024-02-21T01:48:52.387Z,600.00
2024-02-21T01:49:52.367Z,604.00
2024-02-21T01:50:52.356Z,603.00
2024-02-21T01:51:52.390Z,602.00
2024-02-21T01:52:52.418Z,607.00
2024-02-21T01:53:52.410Z,605.00
2024-02-21T01:54:52.446Z,600.00
2024-02-21T01:55:52.423Z,602.00
2024-02-21T01:56:52.425Z,608.00
2024-02-21T01:57:52.422Z,603.00
2024-02-21T01:58:52.451Z,604.00
2024-02-21T01:59:52.444Z,600.00
2024-02-21T02:00:52.474Z,602.00
2024-02-21T02:01:52.511Z,603.00
2024-02-21T02:02:52.457Z,605.00
2024-02-21T02:03:52.590Z,608.00
2024-02-21T02:04:52.497Z,604.00
2024-02-21T02:05:52.494Z,604.00
2024-02-21T02:06:52.542Z,603.00
2024-02-21T02:07:52.629Z,606.00
2024-02-21T02:08:52.529Z,605.00
2024-02-21T02:09:52.574Z,606.00
2024-02-21T02:10:52.637Z,603.00
2024-02-21T02:11:52.682Z,603.00
2024-02-21T02:12:52.607Z,606.00
2024-02-21T02:13:52.693Z,605.00
2024-02-21T02:14:52.644Z,603.00
2024-02-21T02:15:52.653Z,601.00
2024-02-21T02:16:52.713Z,603.00
2024-02-21T02:17:52.705Z,604.00
2024-02-21T02:18:53.274Z,602.00
2024-02-21T02:19:52.765Z,604.00
2024-02-21T02:20:52.729Z,605.00
2024-02-21T02:21:52.724Z,604.00
2024-02-21T02:22:52.806Z,604.00
2024-02-21T02:23:52.743Z,604.00
2024-02-21T02:24:52.728Z,604.00
2024-02-21T02:25:52.937Z,604.00
2024-02-21T02:26:52.731Z,605.00
2024-02-21T02:27:52.798Z,604.00
2024-02-21T02:28:52.862Z,607.00
2024-02-21T02:29:52.805Z,606.00
2024-02-21T02:30:52.863Z,604.00
2024-02-21T02:31:52.953Z,607.00
2024-02-21T02:32:52.979Z,605.00
2024-02-21T02:33:53.258Z,607.00
2024-02-21T02:34:53.013Z,606.00
2024-02-21T02:35:52.882Z,604.00
2024-02-21T02:36:52.912Z,604.00
2024-02-21T02:37:52.982Z,603.00
2024-02-21T02:38:52.924Z,602.00
2024-02-21T02:39:52.930Z,606.00
2024-02-21T02:40:53.029Z,604.00
2024-02-21T02:41:53.025Z,605.00
2024-02-21T02:42:53.025Z,603.00
2024-02-21T02:43:53.083Z,607.00
2024-02-21T02:44:53.017Z,607.00
2024-02-21T02:45:53.042Z,606.00
2024-02-21T02:46:53.097Z,605.00
2024-02-21T02:47:53.151Z,605.00
2024-02-21T02:48:53.322Z,603.00
2024-02-21T02:49:53.124Z,603.00
2024-02-21T02:50:53.111Z,607.00
2024-02-21T02:51:53.098Z,607.00
2024-02-21T02:52:53.205Z,602.00
2024-02-21T02:53:53.203Z,603.00
2024-02-21T02:54:53.236Z,603.00
2024-02-21T02:55:53.290Z,607.00
2024-02-21T02:56:53.190Z,605.00
2024-02-21T02:57:53.217Z,604.00
2024-02-21T02:58:53.815Z,605.00
2024-02-21T02:59:53.273Z,603.00
2024-02-21T03:00:53.315Z,602.00
2024-02-21T03:01:53.315Z,605.00
2024-02-21T03:02:53.288Z,603.00
2024-02-21T03:03:53.369Z,603.00
2024-02-21T03:04:53.335Z,604.00
2024-02-21T03:05:53.372Z,603.00
2024-02-21T03:06:53.364Z,601.00
2024-02-21T03:07:53.490Z,604.00
2024-02-21T03:08:53.393Z,609.00
2024-02-21T03:09:53.380Z,604.00
2024-02-21T03:10:53.527Z,603.00
2024-02-21T03:11:53.475Z,604.00
2024-02-21T03:12:53.431Z,602.00
2024-02-21T03:13:53.829Z,608.00
2024-02-21T03:14:53.517Z,604.00
2024-02-21T03:15:53.484Z,607.00
2024-02-21T03:16:53.589Z,603.00
2024-02-21T03:17:53.581Z,605.00
2024-02-21T03:18:53.608Z,608.00
2024-02-21T03:19:53.604Z,603.00
2024-02-21T03:20:54.167Z,606.00
2024-02-21T03:21:53.555Z,605.00
2024-02-21T03:22:53.720Z,604.00
2024-02-21T03:23:54.187Z,608.00
2024-02-21T03:24:53.631Z,604.00
2024-02-21T03:25:53.670Z,604.00
2024-02-21T03:26:53.648Z,607.00
2024-02-21T03:27:53.636Z,609.00
2024-02-21T03:28:53.763Z,604.00
2024-02-21T03:29:53.684Z,605.00
2024-02-21T03:30:53.757Z,604.00
2024-02-21T03:31:53.782Z,601.00
2024-02-21T03:32:53.724Z,604.00
2024-02-21T03:33:54.240Z,606.00
2024-02-21T03:34:53.785Z,604.00
2024-02-21T03:35:53.751Z,605.00
2024-02-21T03:36:53.785Z,601.00
2024-02-21T03:37:53.832Z,603.00
2024-02-21T03:38:53.823Z,603.00
2024-02-21T03:39:53.771Z,604.00
2024-02-21T03:40:53.849Z,606.00
2024-02-21T03:41:53.799Z,605.00
2024-02-21T03:42:53.813Z,602.00
2024-02-21T03:43:54.336Z,606.00
2024-02-21T03:44:53.877Z,606.00
2024-02-21T03:45:53.888Z,604.00
2024-02-21T03:46:53.951Z,603.00
2024-02-21T03:47:53.929Z,605.00
2024-02-21T03:48:53.990Z,604.00
2024-02-21T03:49:54.001Z,603.00
2024-02-21T03:50:53.924Z,605.00
2024-02-21T03:51:53.969Z,606.00
2024-02-21T03:52:54.046Z,606.00
2024-02-21T03:53:54.179Z,604.00
2024-02-21T03:54:54.008Z,605.00
2024-02-21T03:55:54.102Z,604.00
2024-02-21T03:56:54.032Z,602.00
2024-02-21T03:57:54.049Z,602.00
2024-02-21T03:58:54.160Z,603.00
2024-02-21T03:59:54.071Z,601.00
2024-02-21T04:00:54.156Z,603.00
2024-02-21T04:01:54.153Z,608.00
2024-02-21T04:02:54.146Z,609.00
2024-02-21T04:03:54.310Z,607.00
2024-02-21T04:04:54.283Z,606.00
2024-02-21T04:05:54.245Z,605.00
2024-02-21T04:06:54.230Z,604.00
2024-02-21T04:07:54.401Z,602.00
2024-02-21T04:08:54.264Z,608.00
2024-02-21T04:09:54.291Z,601.00
2024-02-21T04:10:54.471Z,601.00
2024-02-21T04:11:54.333Z,610.00
2024-02-21T04:12:54.320Z,604.00
2024-02-21T04:13:54.723Z,602.00
2024-02-21T04:14:54.384Z,605.00
2024-02-21T04:15:54.362Z,606.00
2024-02-21T04:16:54.498Z,602.00
2024-02-21T04:17:54.540Z,605.00
2024-02-21T04:18:54.472Z,604.00
2024-02-21T04:19:54.516Z,608.00
2024-02-21T04:20:54.473Z,602.00
2024-02-21T04:21:54.527Z,603.00
2024-02-21T04:22:54.625Z,605.00
2024-02-21T04:23:54.702Z,603.00
2024-02-21T04:24:54.578Z,605.00
2024-02-21T04:25:54.675Z,607.00
2024-02-21T04:26:54.566Z,602.00
2024-02-21T04:27:54.637Z,602.00
2024-02-21T04:28:54.797Z,604.00
2024-02-21T04:29:54.685Z,605.00
2024-02-21T04:30:54.683Z,608.00
2024-02-21T04:31:54.674Z,605.00
2024-02-21T04:32:54.751Z,605.00
2024-02-21T04:33:55.247Z,605.00
2024-02-21T04:34:55.088Z,606.00
2024-02-21T04:35:54.734Z,606.00
2024-02-21T04:36:54.775Z,606.00
2024-02-21T04:37:55.830Z,606.00
2024-02-21T04:39:03.078Z,600.00
2024-02-21T04:40:03.099Z,600.00
2024-02-21T04:41:03.143Z,600.00
2024-02-21T04:42:03.123Z,600.00
2024-02-21T04:43:03.142Z,600.00
2024-02-21T04:44:03.209Z,602.00
2024-02-21T04:45:03.087Z,602.00
2024-02-21T04:46:03.116Z,602.00
2024-02-21T04:47:03.137Z,599.00
2024-02-21T04:48:03.114Z,605.00
2024-02-21T04:49:03.290Z,600.00
2024-02-21T04:50:03.329Z,600.00
2024-02-21T04:51:03.134Z,605.00
2024-02-21T04:52:03.123Z,604.00
2024-02-21T04:53:03.193Z,603.00
2024-02-21T04:54:03.213Z,605.00
2024-02-21T04:55:03.120Z,601.00
2024-02-21T04:56:03.272Z,602.00
2024-02-21T04:57:03.110Z,607.00
2024-02-21T04:58:03.109Z,604.00
2024-02-21T04:59:03.229Z,604.00
2024-02-21T05:00:03.102Z,602.00
2024-02-21T05:01:03.171Z,601.00
2024-02-21T05:02:03.169Z,606.00
2024-02-21T05:03:03.162Z,607.00
2024-02-21T05:04:03.240Z,603.00
2024-02-21T05:05:03.295Z,606.00
2024-02-21T05:06:03.176Z,604.00
2024-02-21T05:07:03.198Z,604.00
2024-02-21T05:08:03.159Z,605.00
2024-02-21T05:09:03.191Z,605.00
2024-02-21T05:10:03.160Z,606.00
2024-02-21T05:11:03.200Z,602.00
2024-02-21T05:12:03.162Z,609.00
2024-02-21T05:13:03.157Z,610.00
2024-02-21T05:14:03.287Z,603.00
2024-02-21T05:15:03.155Z,607.00
2024-02-21T05:16:03.134Z,602.00
2024-02-21T05:17:03.291Z,606.00
2024-02-21T05:18:03.371Z,606.00
2024-02-21T05:19:03.251Z,606.00
2024-02-21T05:20:03.293Z,605.00
2024-02-21T05:21:03.181Z,601.00
2024-02-21T05:22:03.175Z,606.00
2024-02-21T05:23:03.275Z,604.00
2024-02-21T05:24:03.232Z,606.00
2024-02-21T05:25:03.156Z,608.00
2024-02-21T05:26:03.238Z,602.00
2024-02-21T05:27:03.183Z,603.00
2024-02-21T05:28:03.280Z,604.00
2024-02-21T05:29:03.407Z,609.00
2024-02-21T05:30:03.183Z,608.00
2024-02-21T05:31:03.146Z,603.00
2024-02-21T05:32:03.171Z,606.00
2024-02-21T05:33:03.245Z,608.00
2024-02-21T05:34:03.997Z,608.00
2024-02-21T05:35:03.282Z,608.00
2024-02-21T05:36:03.184Z,606.00
2024-02-21T05:37:03.709Z,609.00
2024-02-21T05:38:03.254Z,607.00
2024-02-21T05:39:03.229Z,606.00
2024-02-21T05:40:03.161Z,610.00
2024-02-21T05:41:03.209Z,604.00
2024-02-21T05:42:03.179Z,605.00
2024-02-21T05:43:03.210Z,607.00
2024-02-21T05:44:03.270Z,606.00
2024-02-21T05:45:03.183Z,605.00
2024-02-21T05:46:03.225Z,604.00
2024-02-21T05:47:03.278Z,606.00
2024-02-21T05:48:03.317Z,602.00
2024-02-21T05:49:03.810Z,603.00
2024-02-21T05:50:03.325Z,604.00
2024-02-21T05:51:03.322Z,606.00
2024-02-21T05:52:03.345Z,604.00
2024-02-21T05:53:03.383Z,606.00
2024-02-21T05:54:03.742Z,605.00
2024-02-21T05:55:03.493Z,605.00
2024-02-21T05:56:03.541Z,606.00
2024-02-21T05:57:03.539Z,607.00
2024-02-21T05:58:03.589Z,604.00
2024-02-21T05:59:03.842Z,603.00
2024-02-21T06:00:03.565Z,601.00
2024-02-21T06:01:03.639Z,602.00
2024-02-21T06:02:03.674Z,604.00
2024-02-21T06:03:03.707Z,604.00
2024-02-21T06:04:03.743Z,600.00
2024-02-21T06:05:03.782Z,604.00
2024-02-21T06:06:03.736Z,607.00
2024-02-21T06:07:03.819Z,606.00
2024-02-21T06:08:03.895Z,605.00
2024-02-21T06:09:04.255Z,602.00
2024-02-21T06:10:03.856Z,606.00
2024-02-21T06:11:04.024Z,601.00
2024-02-21T06:12:03.939Z,606.00
2024-02-21T06:13:03.942Z,603.00
2024-02-21T06:14:04.084Z,606.00
2024-02-21T06:15:04.029Z,602.00
2024-02-21T06:16:04.052Z,605.00
2024-02-21T06:17:04.116Z,606.00
2024-02-21T06:18:04.273Z,603.00
2024-02-21T06:19:05.613Z,603.00
2024-02-21T06:20:04.272Z,608.00
2024-02-21T06:21:04.119Z,606.00
2024-02-21T06:22:04.173Z,604.00
2024-02-21T06:23:04.177Z,603.00
2024-02-21T06:24:04.176Z,607.00
2024-02-21T06:25:04.136Z,607.00
2024-02-21T06:26:04.216Z,605.00
2024-02-21T06:27:04.755Z,607.00
2024-02-21T06:28:04.174Z,605.00
2024-02-21T06:29:04.516Z,605.00
2024-02-21T06:30:04.217Z,607.00
2024-02-21T06:31:04.184Z,605.00
2024-02-21T06:32:04.214Z,605.00
2024-02-21T06:33:04.275Z,606.00
2024-02-21T06:34:04.343Z,603.00
2024-02-21T06:35:04.191Z,602.00
2024-02-21T06:36:04.144Z,607.00
2024-02-21T06:37:04.152Z,607.00
2024-02-21T06:38:04.167Z,603.00
2024-02-21T06:39:04.268Z,603.00
2024-02-21T06:40:04.150Z,605.00
2024-02-21T06:41:04.233Z,602.00
2024-02-21T06:42:04.392Z,603.00
2024-02-21T06:43:04.156Z,602.00
2024-02-21T06:44:04.439Z,604.00
2024-02-21T06:45:04.193Z,606.00
2024-02-21T06:46:04.188Z,605.00
2024-02-21T06:47:04.222Z,603.00
2024-02-21T06:48:04.270Z,600.00
2024-02-21T06:49:04.360Z,604.00
2024-02-21T06:50:04.241Z,605.00
2024-02-21T06:51:04.190Z,601.00
2024-02-21T06:52:04.200Z,604.00
2024-02-21T06:53:04.218Z,604.00
2024-02-21T06:54:04.216Z,601.00
2024-02-21T06:55:04.167Z,606.00
2024-02-21T06:56:04.250Z,604.00
2024-02-21T06:57:04.219Z,603.00
2024-02-21T06:58:04.247Z,604.00
2024-02-21T06:59:04.381Z,606.00
2024-02-21T07:00:04.165Z,604.00
2024-02-21T07:01:04.231Z,606.00
2024-02-21T07:02:04.224Z,609.00
2024-02-21T07:03:04.195Z,608.00
2024-02-21T07:04:04.212Z,611.00
2024-02-21T07:05:04.361Z,614.00
2024-02-21T07:06:04.355Z,615.00
2024-02-21T07:07:04.324Z,615.00
2024-02-21T07:08:04.268Z,614.00
2024-02-21T07:09:04.207Z,624.00
2024-02-21T07:10:04.213Z,621.00
2024-02-21T07:11:04.293Z,628.00
2024-02-21T07:12:04.286Z,628.00
2024-02-21T07:13:04.230Z,633.00
2024-02-21T07:14:04.392Z,633.00
2024-02-21T07:15:06.695Z,636.00
2024-02-21T07:16:04.259Z,638.00
2024-02-21T07:17:04.291Z,639.00
2024-02-21T07:18:04.309Z,644.00
2024-02-21T07:19:04.355Z,645.00
2024-02-21T07:20:04.364Z,645.00
2024-02-21T07:21:04.313Z,649.00
2024-02-21T07:22:04.257Z,653.00
2024-02-21T07:23:04.277Z,656.00
2024-02-21T07:24:04.291Z,659.00
2024-02-21T07:25:06.479Z,659.00
2024-02-21T07:26:04.557Z,659.00
2024-02-21T07:27:04.554Z,660.00
2024-02-21T07:28:04.631Z,664.00
2024-02-21T07:29:04.684Z,667.00
2024-02-21T07:30:04.696Z,689.00
2024-02-21T07:31:04.771Z,701.00
2024-02-21T07:32:04.865Z,702.00
2024-02-21T07:33:04.990Z,713.00
2024-02-21T07:34:05.325Z,719.00
2024-02-21T07:35:05.096Z,717.00
2024-02-21T07:36:05.074Z,729.00
2024-02-21T07:37:05.169Z,733.00
2024-02-21T07:38:05.284Z,733.00
2024-02-21T07:39:05.776Z,727.00
2024-02-21T07:40:05.360Z,742.00
2024-02-21T07:41:05.569Z,747.00
2024-02-21T07:42:05.485Z,741.00
2024-02-21T07:43:05.519Z,747.00
2024-02-21T07:44:05.735Z,758.00
2024-02-21T07:45:05.702Z,753.00
2024-02-21T07:46:05.741Z,759.00
2024-02-21T07:47:05.813Z,750.00
2024-02-21T07:48:06.004Z,762.00
2024-02-21T07:49:06.032Z,777.00
2024-02-21T07:50:06.045Z,769.00
2024-02-21T07:51:06.087Z,759.00
2024-02-21T07:52:06.145Z,772.00
2024-02-21T07:53:06.351Z,764.00
2024-02-21T07:54:06.297Z,763.00
2024-02-21T07:55:06.357Z,760.00
2024-02-21T07:56:06.431Z,769.00
2024-02-21T07:57:06.453Z,776.00
2024-02-21T07:58:06.516Z,778.00
2024-02-21T07:59:06.844Z,781.00
2024-02-21T08:00:06.646Z,787.00
2024-02-21T08:01:06.783Z,785.00
2024-02-21T08:02:06.911Z,787.00
2024-02-21T08:03:06.880Z,786.00
2024-02-21T08:04:07.055Z,788.00
2024-02-21T08:05:07.047Z,783.00
2024-02-21T08:06:07.171Z,785.00
2024-02-21T08:07:07.165Z,796.00
2024-02-21T08:08:07.244Z,802.00
2024-02-21T08:09:07.398Z,794.00
2024-02-21T08:10:07.471Z,806.00
2024-02-21T08:11:07.513Z,814.00
2024-02-21T08:12:07.675Z,808.00
2024-02-21T08:13:07.513Z,809.00
2024-02-21T08:14:07.672Z,808.00
2024-02-21T08:15:07.763Z,816.00
2024-02-21T08:16:07.747Z,822.00
2024-02-21T08:17:07.831Z,827.00
2024-02-21T08:18:07.958Z,817.00
2024-02-21T08:19:08.442Z,825.00
2024-02-21T08:20:08.016Z,839.00
2024-02-21T08:21:08.033Z,836.00
2024-02-21T08:22:08.095Z,840.00
2024-02-21T08:23:08.214Z,854.00
2024-02-21T08:24:08.341Z,841.00
2024-02-21T08:25:08.248Z,857.00
2024-02-21T08:26:08.353Z,844.00
2024-02-21T08:27:08.346Z,853.00
2024-02-21T08:28:08.405Z,875.00
2024-02-21T08:29:09.044Z,866.00
2024-02-21T08:30:08.489Z,872.00
2024-02-21T08:31:08.568Z,884.00
2024-02-21T08:32:08.814Z,879.00
2024-02-21T08:33:08.737Z,872.00
2024-02-21T08:34:09.055Z,879.00
2024-02-21T08:35:08.770Z,881.00
2024-02-21T08:36:08.805Z,881.00
2024-02-21T08:37:08.829Z,896.00
2024-02-21T08:38:09.045Z,885.00
2024-02-21T08:39:09.349Z,889.00
2024-02-21T08:40:08.948Z,906.00
2024-02-21T08:41:09.127Z,901.00
2024-02-21T08:42:09.078Z,903.00
2024-02-21T08:43:09.115Z,900.00
2024-02-21T08:44:09.327Z,897.00
2024-02-21T08:45:09.207Z,920.00
2024-02-21T08:46:09.218Z,947.00
2024-02-21T08:47:09.398Z,968.00
2024-02-21T08:48:09.496Z,985.00
2024-02-21T08:49:09.458Z,971.00
2024-02-21T08:50:18.978Z,963.00
2024-02-21T08:51:10.492Z,961.00
2024-02-21T08:52:09.395Z,945.00
2024-02-21T08:53:09.479Z,943.00
2024-02-21T08:54:09.845Z,946.00
2024-02-21T08:55:09.374Z,942.00
2024-02-21T08:56:09.602Z,933.00
2024-02-21T08:57:09.437Z,928.00
2024-02-21T08:58:09.425Z,922.00
2024-02-21T08:59:10.006Z,925.00
2024-02-21T09:00:09.468Z,928.00
2024-02-21T09:01:09.481Z,929.00
2024-02-21T09:02:09.580Z,936.00
2024-02-21T09:03:09.622Z,934.00
2024-02-21T09:04:09.705Z,931.00
2024-02-21T09:05:09.919Z,922.00
2024-02-21T09:06:09.905Z,920.00
2024-02-21T09:07:09.892Z,917.00
2024-02-21T09:08:09.908Z,919.00
2024-02-21T09:09:09.961Z,902.00
2024-02-21T09:10:10.345Z,924.00
2024-02-21T09:11:10.137Z,911.00
2024-02-21T09:12:10.194Z,896.00
2024-02-21T09:13:10.166Z,892.00
2024-02-21T09:14:10.307Z,878.00
2024-02-21T09:15:10.366Z,873.00
2024-02-21T09:16:10.423Z,855.00
2024-02-21T09:17:10.365Z,866.00
2024-02-21T09:18:10.447Z,865.00
2024-02-21T09:19:10.425Z,853.00
2024-02-21T09:20:10.895Z,846.00
2024-02-21T09:21:10.495Z,852.00
2024-02-21T09:22:10.586Z,843.00
2024-02-21T09:23:10.588Z,848.00
2024-02-21T09:24:10.585Z,849.00
2024-02-21T09:25:10.831Z,840.00
2024-02-21T09:26:10.737Z,841.00
2024-02-21T09:27:10.728Z,835.00
2024-02-21T09:28:10.742Z,839.00
2024-02-21T09:29:10.856Z,841.00
2024-02-21T09:30:11.056Z,834.00
2024-02-21T09:31:10.848Z,831.00
2024-02-21T09:32:10.919Z,829.00
2024-02-21T09:33:11.780Z,827.00
2024-02-21T09:34:11.083Z,827.00
2024-02-21T09:35:11.489Z,823.00
2024-02-21T09:36:10.887Z,827.00
2024-02-21T09:37:10.941Z,827.00
2024-02-21T09:38:10.915Z,822.00
2024-02-21T09:39:10.914Z,811.00
2024-02-21T09:40:10.889Z,809.00
2024-02-21T09:41:10.920Z,812.00
2024-02-21T09:42:10.912Z,808.00
2024-02-21T09:43:10.932Z,812.00
2024-02-21T09:44:11.030Z,809.00
2024-02-21T09:45:11.336Z,815.00
2024-02-21T09:46:10.936Z,806.00
2024-02-21T09:47:10.964Z,804.00
2024-02-21T09:48:11.021Z,804.00
2024-02-21T09:49:10.924Z,806.00
2024-02-21T09:50:10.962Z,797.00
2024-02-21T09:51:10.901Z,794.00
2024-02-21T09:52:10.902Z,802.00
2024-02-21T09:53:10.917Z,811.00
2024-02-21T09:54:16.131Z,791.00
2024-02-21T09:55:12.390Z,792.00
2024-02-21T09:56:15.207Z,793.00
2024-02-21T09:57:10.948Z,792.00
2024-02-21T09:58:10.931Z,793.00
2024-02-21T09:59:10.984Z,791.00
2024-02-21T10:00:11.339Z,796.00
2024-02-21T10:01:21.226Z,785.00
2024-02-21T10:02:12.002Z,791.00
2024-02-21T10:03:10.969Z,792.00
2024-02-21T10:04:11.028Z,794.00
2024-02-21T10:05:11.408Z,791.00
2024-02-21T10:06:11.063Z,788.00
2024-02-21T10:07:11.000Z,797.00
2024-02-21T10:08:11.064Z,787.00
2024-02-21T10:09:10.941Z,780.00
2024-02-21T10:10:11.430Z,787.00
2024-02-21T10:11:10.997Z,783.00
2024-02-21T10:12:11.228Z,779.00
2024-02-21T10:13:10.963Z,784.00
2024-02-21T10:14:11.030Z,776.00
2024-02-21T10:15:11.360Z,771.00
2024-02-21T10:16:11.029Z,782.00
2024-02-21T10:17:11.847Z,771.00
2024-02-21T10:18:11.065Z,773.00
2024-02-21T10:19:10.990Z,772.00
2024-02-21T10:20:11.610Z,766.00
2024-02-21T10:21:11.016Z,774.00
2024-02-21T10:22:11.417Z,768.00
2024-02-21T10:23:11.172Z,759.00
2024-02-21T10:24:10.982Z,766.00
2024-02-21T10:25:11.011Z,768.00
2024-02-21T10:26:11.168Z,779.00
2024-02-21T10:27:11.001Z,767.00
2024-02-21T10:28:11.005Z,758.00
2024-02-21T10:29:11.111Z,762.00
2024-02-21T10:30:12.705Z,769.00
2024-02-21T10:31:11.030Z,758.00
2024-02-21T10:32:11.133Z,759.00
2024-02-21T10:33:11.108Z,750.00
2024-02-21T10:34:11.108Z,753.00
2024-02-21T10:35:11.462Z,755.00
2024-02-21T10:36:11.112Z,760.00
2024-02-21T10:37:11.032Z,754.00
2024-02-21T10:38:11.068Z,753.00
2024-02-21T10:39:11.017Z,749.00
2024-02-21T10:40:11.022Z,749.00
2024-02-21T10:41:11.026Z,743.00
2024-02-21T10:42:11.090Z,751.00
2024-02-21T10:43:11.024Z,749.00
2024-02-21T10:44:11.088Z,748.00
2024-02-21T10:45:12.912Z,752.00
2024-02-21T10:46:11.027Z,756.00
2024-02-21T10:47:11.232Z,748.00
2024-02-21T10:48:11.145Z,757.00
2024-02-21T10:49:11.288Z,754.00
2024-02-21T10:50:11.166Z,751.00
2024-02-21T10:51:11.057Z,763.00
2024-02-21T10:52:11.087Z,756.00
2024-02-21T10:53:11.188Z,758.00
2024-02-21T10:54:11.060Z,755.00
2024-02-21T10:55:11.059Z,755.00
2024-02-21T10:56:13.300Z,753.00
2024-02-21T10:57:11.085Z,754.00
2024-02-21T10:58:11.076Z,755.00
2024-02-21T10:59:11.223Z,754.00
2024-02-21T11:00:11.106Z,759.00
2024-02-21T11:01:11.155Z,761.00
2024-02-21T11:02:11.165Z,763.00
2024-02-21T11:03:11.147Z,773.00
2024-02-21T11:04:11.110Z,761.00
2024-02-21T11:05:11.181Z,766.00
2024-02-21T11:06:11.113Z,765.00
2024-02-21T11:07:11.817Z,752.00
2024-02-21T11:08:11.228Z,767.00
2024-02-21T11:09:11.364Z,757.00
2024-02-21T11:10:11.401Z,767.00
2024-02-21T11:11:17.349Z,748.00
2024-02-21T11:12:12.236Z,749.00
2024-02-21T11:13:11.195Z,749.00
2024-02-21T11:14:11.315Z,750.00
2024-02-21T11:15:11.391Z,749.00
2024-02-21T11:16:11.082Z,746.00
2024-02-21T11:17:11.188Z,748.00
2024-02-21T11:18:11.194Z,746.00
2024-02-21T11:19:11.233Z,748.00
2024-02-21T11:20:11.464Z,745.00
2024-02-21T11:21:11.145Z,738.00
2024-02-21T11:22:11.135Z,718.00
2024-02-21T11:23:11.174Z,733.00
2024-02-21T11:24:11.163Z,722.00
2024-02-21T11:25:11.129Z,724.00
2024-02-21T11:26:11.294Z,728.00
2024-02-21T11:27:11.178Z,724.00
2024-02-21T11:28:12.578Z,720.00
2024-02-21T11:29:11.382Z,719.00
2024-02-21T11:30:11.439Z,717.00
2024-02-21T11:31:11.317Z,716.00
2024-02-21T11:32:11.929Z,710.00
2024-02-21T11:33:11.447Z,715.00
2024-02-21T11:34:11.390Z,701.00
2024-02-21T11:35:11.471Z,707.00
2024-02-21T11:36:11.389Z,709.00
2024-02-21T11:37:11.377Z,721.00
2024-02-21T11:38:11.702Z,703.00
2024-02-21T11:39:11.429Z,705.00
2024-02-21T11:40:12.902Z,717.00
2024-02-21T11:41:12.973Z,712.00
2024-02-21T11:42:11.425Z,712.00
2024-02-21T11:43:11.480Z,717.00
2024-02-21T11:44:11.505Z,714.00
2024-02-21T11:45:11.939Z,715.00
2024-02-21T11:46:11.499Z,712.00
2024-02-21T11:47:11.579Z,709.00
2024-02-21T11:48:11.491Z,700.00
2024-02-21T11:49:11.578Z,721.00
2024-02-21T11:50:11.731Z,712.00
2024-02-21T11:51:11.478Z,710.00
2024-02-21T11:52:11.480Z,699.00
2024-02-21T11:53:11.582Z,704.00
2024-02-21T11:54:11.487Z,714.00
2024-02-21T11:55:11.947Z,709.00
2024-02-21T11:56:11.584Z,715.00
2024-02-21T11:57:11.507Z,711.00
2024-02-21T11:58:11.500Z,704.00
2024-02-21T11:59:11.580Z,707.00
2024-02-21T12:00:11.474Z,720.00
2024-02-21T12:01:11.523Z,711.00
2024-02-21T12:02:11.501Z,718.00
2024-02-21T12:03:11.467Z,715.00
2024-02-21T12:04:11.565Z,717.00
2024-02-21T12:05:11.643Z,719.00
2024-02-21T12:06:11.643Z,722.00
2024-02-21T12:07:11.562Z,719.00
2024-02-21T12:08:11.560Z,722.00
2024-02-21T12:09:11.485Z,716.00
2024-02-21T12:10:12.023Z,716.00
2024-02-21T12:11:11.670Z,724.00
2024-02-21T12:12:11.573Z,730.00
2024-02-21T12:13:11.536Z,714.00
2024-02-21T12:14:11.550Z,728.00
2024-02-21T12:15:11.958Z,724.00
2024-02-21T12:16:11.494Z,719.00
2024-02-21T12:17:11.567Z,732.00
2024-02-21T12:18:11.587Z,720.00
2024-02-21T12:19:11.618Z,724.00
2024-02-21T12:20:11.742Z,727.00
2024-02-21T12:21:11.493Z,737.00
2024-02-21T12:22:11.502Z,728.00
2024-02-21T12:23:11.757Z,735.00
2024-02-21T12:24:11.501Z,735.00
2024-02-21T12:25:11.979Z,732.00
2024-02-21T12:26:11.559Z,735.00
2024-02-21T12:27:11.518Z,737.00
2024-02-21T12:28:11.537Z,733.00
2024-02-21T12:29:11.537Z,734.00